Time;durP1;ratioP1;P1;durP2;ratioP2;P2;SDS_P1;SDS_P2;PMS_P1;PMS_P2;Temp;Humidity;BMP_temperature;BMP_pressure;BME280_temperature;BME280_humidity;BME280_pressure;Samples;Min_cycle;Max_cycle;Signal;HPM_P1;HPM_P2
2023/09/14 00:00:31;;;;;;;8.77;3.30;;;;;;;22.78;54.57;99543.94;7685521;32;37226;-82
2023/09/14 00:04:47;;;;;;;7.85;3.45;;;;;;;23.19;53.34;99543.72;7685742;32;39908;-81
2023/09/14 00:09:04;;;;;;;7.85;3.65;;;;;;;22.76;55.02;99540.72;7685769;32;39863;-82
2023/09/14 00:13:20;;;;;;;5.12;3.17;;;;;;;22.89;54.78;99560.91;7685639;32;38008;-82
2023/09/14 00:17:37;;;;;;;5.32;3.12;;;;;;;22.45;56.37;99567.34;7685493;32;37143;-82
2023/09/14 00:21:53;;;;;;;7.40;3.70;;;;;;;22.33;56.92;99567.44;7685724;32;39385;-82
2023/09/14 00:26:11;;;;;;;5.75;3.17;;;;;;;22.12;58.14;99579.53;7685211;32;39663;-82
2023/09/14 00:30:27;;;;;;;8.38;3.20;;;;;;;22.12;58.95;99573.19;7685239;32;37971;-81
2023/09/14 00:34:43;;;;;;;8.10;3.90;;;;;;;22.12;59.43;99590.63;7685551;32;37928;-82
2023/09/14 00:38:59;;;;;;;7.28;3.70;;;;;;;21.75;61.66;99588.03;7685182;32;39162;-82
2023/09/14 00:43:16;;;;;;;6.90;4.03;;;;;;;21.41;63.53;99594.09;7685408;32;40866;-82
2023/09/14 00:47:32;;;;;;;11.85;4.10;;;;;;;21.34;64.26;99603.81;7685247;32;38258;-81
2023/09/14 00:51:48;;;;;;;7.78;3.95;;;;;;;20.84;65.98;99598.66;7685360;32;37090;-82
2023/09/14 00:56:06;;;;;;;7.97;3.78;;;;;;;21.34;64.15;99573.31;7672079;32;40119;-82
2023/09/14 01:00:23;;;;;;;7.47;3.80;;;;;;;21.69;63.05;99561.69;7683831;32;39998;-82
2023/09/14 01:04:41;;;;;;;10.88;4.30;;;;;;;22.10;61.73;99559.66;7685045;32;38491;-82
2023/09/14 01:08:57;;;;;;;10.10;4.50;;;;;;;22.05;62.15;99539.69;7683585;32;38326;-82
2023/09/14 01:13:22;;;;;;;16.17;4.55;;;;;;;21.93;63.66;99533.03;7685124;32;39357;-81
2023/09/14 01:18:03;;;;;;;8.32;4.43;;;;;;;21.42;66.21;99557.72;7683729;32;40505;-80
2023/09/14 01:22:39;;;;;;;8.27;5.22;;;;;;;21.12;68.33;99543.31;7685065;32;37939;-80
2023/09/14 01:26:56;;;;;;;9.45;5.00;;;;;;;21.37;67.84;99536.56;7685011;32;37857;-81
2023/09/14 01:31:12;;;;;;;14.30;5.35;;;;;;;21.21;68.89;99557.84;7683731;32;40202;-81
2023/09/14 01:35:30;;;;;;;10.98;4.95;;;;;;;20.72;71.22;99547.62;7684703;32;39865;-81
2023/09/14 01:39:46;;;;;;;12.00;5.35;;;;;;;20.89;69.94;99518.88;7684407;32;37841;-80
2023/09/14 01:44:03;;;;;;;8.70;4.60;;;;;;;20.76;70.29;99517.25;7684173;32;38158;-82
2023/09/14 01:48:21;;;;;;;10.18;4.95;;;;;;;20.87;70.09;99532.28;7684673;32;39287;-81
2023/09/14 01:52:37;;;;;;;14.35;5.80;;;;;;;20.59;70.50;99538.47;7684645;32;40607;-80
2023/09/14 01:56:53;;;;;;;12.40;5.18;;;;;;;20.63;71.86;99550.50;7684107;32;37688;-81
2023/09/14 02:01:10;;;;;;;8.27;5.10;;;;;;;20.02;74.52;99542.03;7684381;32;36941;-80
2023/09/14 02:05:26;;;;;;;9.95;5.70;;;;;;;20.29;73.70;99537.03;7684259;32;39385;-81
2023/09/14 02:09:42;;;;;;;8.32;4.93;;;;;;;20.67;71.76;99538.72;7684368;32;40197;-81
2023/09/14 02:13:59;;;;;;;12.13;5.10;;;;;;;20.89;70.98;99529.94;7684085;32;38673;-80
2023/09/14 02:18:15;;;;;;;8.60;5.12;;;;;;;20.72;71.53;99544.03;7683963;32;37065;-80
2023/09/14 02:22:31;;;;;;;9.77;5.47;;;;;;;20.83;71.36;99542.41;7684065;32;40009;-81
2023/09/14 02:26:47;;;;;;;12.07;5.47;;;;;;;20.82;71.48;99546.34;7683978;32;39979;-80
2023/09/14 02:31:07;;;;;;;10.85;5.40;;;;;;;20.62;72.00;99542.53;7683894;32;37862;-81
2023/09/14 02:35:24;;;;;;;9.13;5.53;;;;;;;20.62;71.84;99548.06;7683693;32;36885;-81
2023/09/14 02:39:40;;;;;;;11.10;5.62;;;;;;;20.52;72.46;99554.03;7683885;32;39390;-81
2023/09/14 02:43:56;;;;;;;9.35;5.40;;;;;;;20.88;70.55;99538.59;7683574;32;40133;-81
2023/09/14 02:48:13;;;;;;;8.50;5.60;;;;;;;20.36;73.16;99545.59;7683282;32;38008;-81
2023/09/14 02:52:29;;;;;;;11.57;5.60;;;;;;;20.85;71.21;99539.28;7684396;32;37279;-81
2023/09/14 02:56:46;;;;;;;9.50;5.70;;;;;;;20.86;70.83;99547.25;7686399;32;39174;-81
2023/09/14 03:01:09;;;;;;;11.57;5.85;;;;;;;20.67;71.71;99544.28;7686390;32;40005;-82
2023/09/14 03:05:25;;;;;;;;;;;;;;;20.69;71.55;99544.72;7686831;32;37646;-81
2023/09/14 03:09:42;;;;;;;12.32;5.68;;;;;;;20.40;72.77;99541.81;7686463;32;37544;-81
2023/09/14 03:13:58;;;;;;;9.30;5.70;;;;;;;20.33;72.93;99557.34;7686437;32;39508;-80
2023/09/14 03:18:15;;;;;;;11.60;6.47;;;;;;;20.25;73.51;99561.84;7686359;32;40023;-81
2023/09/14 03:22:31;;;;;;;11.20;6.80;;;;;;;20.21;74.23;99558.94;7686190;32;37808;-81
2023/09/14 03:26:47;;;;;;;13.65;6.93;;;;;;;20.07;74.28;99562.03;7686221;32;37743;-81
2023/09/14 03:31:04;;;;;;;10.88;6.57;;;;;;;20.25;73.47;99568.19;7686326;32;39558;-80
2023/09/14 03:35:20;;;;;;;14.18;8.25;;;;;;;20.31;73.58;99557.69;7685790;32;40038;-80
2023/09/14 03:39:36;;;;;;;12.95;8.07;;;;;;;19.94;74.94;99571.44;7686068;32;37867;-81
2023/09/14 03:43:53;;;;;;;11.38;7.62;;;;;;;20.39;72.93;99569.81;7686131;32;37127;-81
2023/09/14 03:48:09;;;;;;;13.82;8.68;;;;;;;20.46;72.44;99572.84;7686005;32;39473;-80
2023/09/14 03:52:25;;;;;;;12.88;7.78;;;;;;;19.92;74.34;99575.66;7684812;32;40609;-80
2023/09/14 03:56:42;;;;;;;12.00;8.77;;;;;;;19.72;75.20;99583.63;7685592;32;37630;-79
2023/09/14 04:00:59;;;;;;;12.35;7.97;;;;;;;19.44;76.35;99581.41;7685871;32;37153;-79
2023/09/14 04:05:17;;;;;;;14.00;8.63;;;;;;;19.88;74.85;99592.13;7685149;32;39942;-80
2023/09/14 04:09:33;;;;;;;14.70;8.98;;;;;;;19.64;75.49;99601.09;7684687;32;40334;-80
2023/09/14 04:13:50;;;;;;;14.52;9.60;;;;;;;19.49;77.12;99600.56;7685743;32;38650;-80
2023/09/14 04:18:06;;;;;;;13.70;8.90;;;;;;;19.98;75.22;99590.91;7685746;32;37464;-80
2023/09/14 04:22:22;;;;;;;16.48;9.30;;;;;;;19.65;75.83;99609.06;7685696;32;40088;-81
2023/09/14 04:26:39;;;;;;;14.23;9.75;;;;;;;19.81;75.72;99602.94;7685569;32;40740;-81
2023/09/14 04:30:58;;;;;;;17.85;9.63;;;;;;;19.40;77.12;99610.84;7685574;32;37966;-81
2023/09/14 04:35:14;;;;;;;14.43;10.13;;;;;;;19.75;75.68;99610.63;7685384;32;37405;-80
2023/09/14 04:39:31;;;;;;;14.90;9.95;;;;;;;19.73;76.15;99607.38;7685383;32;39340;-80
2023/09/14 04:43:47;;;;;;;13.95;9.48;;;;;;;20.08;74.57;99609.88;7685390;32;40857;-80
2023/09/14 04:48:04;;;;;;;13.45;8.80;;;;;;;19.89;75.48;99611.16;7685282;32;38529;-80
2023/09/14 04:52:20;;;;;;;13.82;8.50;;;;;;;20.00;74.37;99608.78;7685436;32;37160;-80
2023/09/14 04:56:36;;;;;;;11.95;8.25;;;;;;;19.80;74.75;99607.66;7685021;32;39465;-81
2023/09/14 05:00:53;;;;;;;12.05;7.47;;;;;;;19.91;74.34;99608.06;7685058;32;40789;-78
2023/09/14 05:05:10;;;;;;;11.50;7.85;;;;;;;20.21;72.98;99611.53;7685130;32;38625;-79
2023/09/14 05:09:26;;;;;;;13.20;8.15;;;;;;;19.31;76.56;99615.62;7685132;32;37111;-81
2023/09/14 05:13:43;;;;;;;12.77;7.40;;;;;;;19.58;75.47;99621.81;7683898;32;39451;-81
2023/09/14 05:17:59;;;;;;;14.63;7.43;;;;;;;19.85;74.70;99621.28;7682699;32;39846;-81
2023/09/14 05:22:15;;;;;;;13.65;7.20;;;;;;;20.35;72.30;99615.94;7685001;32;37769;-80
2023/09/14 05:26:32;;;;;;;11.38;6.30;;;;;;;20.30;72.45;99613.37;7684897;32;37246;-80
2023/09/14 05:30:48;;;;;;;11.10;6.45;;;;;;;20.51;71.87;99619.69;7684748;32;40260;-81
2023/09/14 05:35:06;;;;;;;17.17;7.10;;;;;;;19.97;73.64;99625.25;7684841;32;39921;-81
2023/09/14 05:39:23;;;;;;;9.75;6.32;;;;;;;19.87;74.41;99623.72;7684613;32;37975;-80
2023/09/14 05:43:39;;;;;;;10.65;6.07;;;;;;;20.22;72.57;99615.09;7684865;32;37511;-80
2023/09/14 05:47:55;;;;;;;11.35;5.97;;;;;;;20.04;73.75;99628.28;7684699;32;39308;-80
2023/09/14 05:52:12;;;;;;;9.57;6.32;;;;;;;20.23;73.40;99625.84;7684631;32;39945;-80
2023/09/14 05:56:28;;;;;;;9.80;6.55;;;;;;;20.61;71.31;99626.72;7684168;32;37965;-79
2023/09/14 06:00:45;;;;;;;9.10;6.20;;;;;;;19.97;72.85;99634.38;7684372;32;37907;-80
2023/09/14 06:05:01;;;;;;;9.90;6.62;;;;;;;19.99;74.24;99631.25;7684635;32;39125;-79
2023/09/14 06:09:37;;;;;;;13.27;6.68;;;;;;;19.76;74.44;99639.09;7684160;32;39955;-80
2023/09/14 06:13:54;;;;;;;12.13;7.03;;;;;;;20.35;72.46;99627.84;7684249;32;38700;-73
2023/09/14 06:18:10;;;;;;;10.13;6.15;;;;;;;20.72;70.76;99638.22;7684354;32;37285;-72
2023/09/14 06:22:27;;;;;;;12.55;6.87;;;;;;;20.93;69.97;99632.59;7684033;32;40142;-71
2023/09/14 06:26:43;;;;;;;9.85;6.82;;;;;;;20.71;70.81;99636.59;7683147;32;39929;-71
2023/09/14 06:30:59;;;;;;;13.43;7.25;;;;;;;21.05;69.91;99637.31;7683118;32;37697;-70
2023/09/14 06:35:16;;;;;;;10.77;6.20;;;;;;;20.94;69.96;99639.75;7683841;32;36853;-71
2023/09/14 06:39:32;;;;;;;10.95;6.55;;;;;;;21.27;68.65;99638.84;7683469;32;39513;-80
2023/09/14 06:43:48;;;;;;;16.05;7.07;;;;;;;21.02;69.58;99633.28;7683495;32;39976;-80
2023/09/14 06:48:05;;;;;;;11.55;6.72;;;;;;;21.09;69.94;99643.78;7683352;32;37883;-80
2023/09/14 06:52:21;;;;;;;13.30;7.25;;;;;;;21.43;68.87;99636.16;7683555;32;37696;-80
2023/09/14 06:56:38;;;;;;;14.75;7.57;;;;;;;21.10;69.86;99648.19;7683293;32;40071;-80
2023/09/14 07:00:56;;;;;;;13.48;6.72;;;;;;;20.84;70.28;99646.53;7681776;32;40060;-80
2023/09/14 07:05:12;;;;;;;12.37;7.82;;;;;;;21.01;70.70;99649.09;7682280;32;38828;-81
2023/09/14 07:09:28;;;;;;;11.45;7.50;;;;;;;21.14;69.99;99658.22;7682733;32;38168;-80
2023/09/14 07:13:45;;;;;;;10.43;7.50;;;;;;;21.48;69.49;99660.91;7682103;32;39535;-80
2023/09/14 07:18:01;;;;;;;12.35;7.75;;;;;;;21.68;68.73;99667.44;7682366;32;40626;-80
2023/09/14 07:22:19;;;;;;;12.30;7.85;;;;;;;21.74;68.49;99672.41;7682497;32;37875;-81
2023/09/14 07:26:38;;;;;;;13.77;7.47;;;;;;;21.13;70.27;99680.75;7682054;32;37884;-80
2023/09/14 07:30:54;;;;;;;12.07;7.45;;;;;;;21.66;68.35;99678.91;7682148;32;40310;-81
2023/09/14 07:35:13;;;;;;;15.23;8.35;;;;;;;21.81;68.01;99696.00;7688003;32;40082;-81
2023/09/14 07:39:30;;;;;;;11.85;7.65;;;;;;;21.63;68.54;99693.47;7683469;32;37686;-81
2023/09/14 07:43:46;;;;;;;11.40;7.18;;;;;;;22.15;67.32;99702.97;7685865;32;37181;-81
2023/09/14 07:48:05;;;;;;;10.52;6.70;;;;;;;22.08;67.77;99698.00;7685764;32;39940;-81
2023/09/14 07:52:22;;;;;;;11.07;7.43;;;;;;;22.09;67.22;99694.06;7686035;32;38964;-81
2023/09/14 07:56:39;;;;;;;12.60;7.28;;;;;;;22.46;65.62;99698.72;7705919;32;37913;-81
2023/09/14 08:00:55;;;;;;;10.30;7.05;;;;;;;22.22;65.99;99699.59;7702093;32;37381;-81
2023/09/14 08:05:11;;;;;;;13.18;7.70;;;;;;;22.49;65.27;99711.87;7685935;32;39208;-81
2023/09/14 08:09:28;;;;;;;14.05;7.95;;;;;;;22.22;66.31;99710.69;7685761;32;39953;-81
2023/09/14 08:13:44;;;;;;;12.05;6.78;;;;;;;22.43;65.15;99714.09;7692418;32;38766;-81
2023/09/14 08:18:01;;;;;;;11.10;6.43;;;;;;;22.76;63.45;99713.00;7711188;32;37029;-80
2023/09/14 08:22:22;;;;;;;11.35;7.43;;;;;;;22.57;64.38;99721.22;7685654;32;39331;-81
2023/09/14 08:26:39;;;;;;;10.73;7.03;;;;;;;22.74;63.64;99717.31;7684960;32;40154;-81
2023/09/14 08:30:55;;;;;;;10.02;6.62;;;;;;;22.81;62.54;99717.50;7684947;32;38745;-82
2023/09/14 08:35:24;;;;;;;12.65;6.45;;;;;;;22.97;62.47;99728.63;7685523;32;38117;-81
2023/09/14 08:39:42;;;;;;;9.02;5.78;;;;;;;23.19;61.73;99727.25;7683472;32;40180;-80
2023/09/14 08:43:59;;;;;;;11.98;6.45;;;;;;;23.06;61.22;99727.34;7684560;32;40733;-80
2023/09/14 08:48:17;;;;;;;10.70;5.95;;;;;;;23.42;59.66;99733.81;7685159;32;37773;-80
2023/09/14 08:52:34;;;;;;;8.75;5.93;;;;;;;23.47;59.48;99729.13;7683895;32;36883;-82
2023/09/14 08:56:51;;;;;;;11.38;6.57;;;;;;;23.85;59.25;99734.03;7685287;32;39500;-81
2023/09/14 09:01:13;;;;;;;13.93;6.28;;;;;;;24.35;58.00;99735.13;7685061;32;39896;-81
2023/09/14 09:05:29;;;;;;;7.90;5.25;;;;;;;24.29;56.96;99731.00;7683944;32;37923;-81
2023/09/14 09:09:48;;;;;;;8.30;5.07;;;;;;;24.31;56.40;99745.38;7685256;32;36849;-81
2023/09/14 09:14:04;;;;;;;9.90;5.25;;;;;;;24.43;55.35;99740.84;7683931;32;39470;-82
2023/09/14 09:18:21;;;;;;;10.45;6.28;;;;;;;24.32;56.49;99741.44;7684804;32;39966;-82
2023/09/14 09:22:41;;;;;;;10.32;6.10;;;;;;;24.38;55.67;99737.16;7684990;32;37980;-82
2023/09/14 09:26:58;;;;;;;16.87;6.37;;;;;;;24.66;55.52;99730.56;7683615;32;37015;-82
2023/09/14 09:31:15;;;;;;;8.95;5.75;;;;;;;24.74;54.58;99729.53;7683303;32;40047;-82
2023/09/14 09:35:34;;;;;;;11.68;5.72;;;;;;;25.06;52.90;99718.19;7683985;32;38451;-82
2023/09/14 09:39:51;;;;;;;13.13;5.82;;;;;;;25.52;51.07;99719.34;7684150;32;38196;-81
2023/09/14 09:44:14;;;;;;;11.27;5.32;;;;;;;24.96;53.42;99727.16;7682871;32;37061;-71
2023/09/14 09:48:31;;;;;;;7.40;5.20;;;;;;;25.06;53.03;99715.41;7684120;32;40047;-74
2023/09/14 09:52:48;;;;;;;9.95;4.93;;;;;;;25.79;52.15;99704.22;7684583;32;40768;-73
2023/09/14 09:57:05;;;;;;;8.05;4.97;;;;;;;26.39;49.35;99702.63;7684427;32;37873;-73
2023/09/14 10:01:22;;;;;;;9.10;4.60;;;;;;;26.34;48.62;99711.34;7682925;32;37228;-74
2023/09/14 10:05:39;;;;;;;9.93;4.72;;;;;;;26.76;47.72;99701.84;7684066;32;40209;-74
2023/09/14 10:09:56;;;;;;;7.30;4.05;;;;;;;26.70;47.41;99700.56;7682421;32;39880;-74
2023/09/14 10:14:13;;;;;;;9.88;4.28;;;;;;;27.22;46.08;99693.09;7682150;32;37929;-73
2023/09/14 10:18:32;;;;;;;7.35;3.90;;;;;;;27.18;45.53;99703.44;7684872;32;36772;-73
2023/09/14 10:22:49;;;;;;;7.53;3.80;;;;;;;26.51;46.55;99712.72;7684262;32;38390;-73
2023/09/14 10:27:06;;;;;;;7.30;4.00;;;;;;;26.55;47.93;99708.78;7683971;32;40787;-73
2023/09/14 10:31:23;;;;;;;6.68;3.90;;;;;;;26.81;46.77;99718.28;7683850;32;37803;-72
2023/09/14 10:35:40;;;;;;;7.10;3.75;;;;;;;27.02;46.73;99719.69;7682634;32;37811;-75
2023/09/14 10:39:59;;;;;;;7.00;3.47;;;;;;;27.13;45.71;99723.38;7682490;32;40126;-73
2023/09/14 10:44:15;;;;;;;8.13;3.75;;;;;;;27.15;45.91;99721.00;7676289;32;39944;-71
2023/09/14 10:48:33;;;;;;;6.18;3.55;;;;;;;26.94;45.63;99728.00;7681685;32;37798;-72
2023/09/14 10:52:50;;;;;;;6.25;3.60;;;;;;;27.65;45.00;99721.44;7680982;32;38977;-72
2023/09/14 10:57:27;;;;;;;6.72;3.60;;;;;;;27.75;43.77;99719.87;7679839;32;39804;-72
2023/09/14 11:01:47;;;;;;;6.78;3.50;;;;;;;28.31;41.78;99717.03;7682238;32;39838;-72
2023/09/14 11:06:07;;;;;;;6.95;3.10;;;;;;;28.80;41.36;99727.63;7680366;32;38293;-71
2023/09/14 11:10:24;;;;;;;4.53;3.12;;;;;;;29.98;38.91;99713.97;7679346;32;36733;-71
2023/09/14 11:15:01;;;;;;;5.75;3.40;;;;;;;30.46;39.00;99704.97;7684580;32;39346;-72
2023/09/14 11:19:32;;;;;;;5.82;3.50;;;;;;;30.00;37.21;99701.13;7685350;32;40026;-81
2023/09/14 11:24:06;;;;;;;7.28;3.40;;;;;;;29.60;38.63;99720.06;7685735;32;38048;-82
2023/09/14 11:28:24;;;;;;;6.28;3.40;;;;;;;29.05;39.43;99724.03;7685437;32;38016;-80
2023/09/14 11:32:42;;;;;;;5.18;3.28;;;;;;;27.72;43.78;99727.06;7686181;32;39433;-81
2023/09/14 11:37:01;;;;;;;5.25;3.17;;;;;;;27.48;44.72;99739.69;7685999;32;39024;-81
2023/09/14 11:41:47;;;;;;;5.00;3.33;;;;;;;27.12;45.51;99736.56;7686184;32;38735;-81
2023/09/14 11:46:05;;;;;;;5.78;2.95;;;;;;;27.09;45.66;99734.53;7686285;32;37115;-82
2023/09/14 11:50:27;;;;;;;4.97;3.25;;;;;;;26.78;46.73;99738.62;7685068;32;40214;-81
2023/09/14 11:54:47;;;;;;;4.25;2.70;;;;;;;26.59;47.73;99745.97;7684885;32;40819;-82
2023/09/14 11:59:04;;;;;;;5.32;2.72;;;;;;;26.21;48.78;99747.88;7685822;32;37893;-81
2023/09/14 12:03:21;;;;;;;4.68;2.53;;;;;;;26.49;48.34;99755.06;7685963;32;37087;-82
2023/09/14 12:07:38;;;;;;;4.12;2.42;;;;;;;26.68;47.43;99758.88;7685786;32;40325;-82
2023/09/14 12:11:55;;;;;;;2.75;2.08;;;;;;;26.74;48.14;99758.16;7685791;32;39933;-83
2023/09/14 12:16:18;;;;;;;3.08;1.85;;;;;;;26.29;48.19;99756.41;7685740;32;38006;-82
2023/09/14 12:20:35;;;;;;;3.55;2.15;;;;;;;26.37;47.23;99753.31;7685896;32;37260;-82
2023/09/14 12:24:52;;;;;;;2.83;2.22;;;;;;;26.50;46.84;99753.06;7684078;32;38990;-82
2023/09/14 12:29:09;;;;;;;3.05;1.87;;;;;;;26.54;47.34;99749.09;7684386;32;40781;-82
2023/09/14 12:33:26;;;;;;;5.32;1.90;;;;;;;26.54;47.45;99751.91;7684410;32;37629;-81
2023/09/14 12:37:43;;;;;;;3.22;2.12;;;;;;;26.26;48.17;99749.56;7684502;32;37877;-82
2023/09/14 12:42:03;;;;;;;2.42;2.00;;;;;;;26.58;46.84;99755.56;7685568;32;39501;-82
2023/09/14 12:46:23;;;;;;;4.18;2.00;;;;;;;26.26;47.15;99759.94;7685439;32;40010;-82
2023/09/14 12:50:40;;;;;;;5.07;1.90;;;;;;;26.48;46.49;99756.22;7684144;32;37890;-82
2023/09/14 12:54:56;;;;;;;4.12;2.12;;;;;;;26.33;47.07;99760.03;7684272;32;37343;-82
2023/09/14 12:59:12;;;;;;;2.62;1.90;;;;;;;26.08;46.68;99768.06;7685137;32;40209;-81
2023/09/14 13:03:28;;;;;;;2.00;1.80;;;;;;;25.80;47.23;99764.47;7685408;32;40530;-81
2023/09/14 13:07:58;;;;;;;3.35;1.87;;;;;;;26.21;46.45;99761.84;7683557;32;38677;-81
2023/09/14 13:12:24;;;;;;;2.45;1.95;;;;;;;26.39;46.18;99762.13;7685235;32;37019;-82
2023/09/14 13:16:54;;;;;;;2.87;2.00;;;;;;;26.02;47.03;99767.59;7685342;32;39532;-83
2023/09/14 13:21:11;;;;;;;4.43;2.17;;;;;;;25.71;47.05;99772.28;7685354;32;40010;-81
2023/09/14 13:25:28;;;;;;;4.37;2.35;;;;;;;25.69;47.32;99771.84;7685046;32;37589;-82
2023/09/14 13:29:44;;;;;;;3.67;2.30;;;;;;;25.93;46.49;99765.03;7685018;32;37080;-82
2023/09/14 13:34:01;;;;;;;3.35;2.28;;;;;;;25.63;47.80;99767.75;7684972;32;40137;-82
2023/09/14 13:38:17;;;;;;;5.00;2.67;;;;;;;25.92;46.63;99760.62;7683823;32;40740;-82
2023/09/14 13:42:35;;;;;;;2.53;2.08;;;;;;;26.01;46.69;99757.63;7684813;32;37607;-82
2023/09/14 13:46:52;;;;;;;2.22;1.75;;;;;;;26.03;46.39;99753.25;7684838;32;36071;-82
2023/09/14 13:51:11;;;;;;;3.70;2.30;;;;;;;26.28;46.02;99749.97;7684680;32;39645;-82
2023/09/14 13:55:28;;;;;;;3.37;2.10;;;;;;;26.19;46.56;99747.47;7684793;32;39967;-82
2023/09/14 13:59:49;;;;;;;3.80;2.37;;;;;;;26.43;45.74;99753.78;7684636;32;38058;-82
2023/09/14 14:04:05;;;;;;;2.55;1.95;;;;;;;26.29;46.01;99754.41;7684641;32;37886;-82
2023/09/14 14:08:23;;;;;;;3.60;2.12;;;;;;;26.49;45.00;99752.25;7684503;32;39152;-82
2023/09/14 14:12:39;;;;;;;2.72;2.00;;;;;;;26.58;45.13;99755.56;7684562;32;41241;-82
2023/09/14 14:16:55;;;;;;;5.20;2.17;;;;;;;26.65;44.86;99759.63;7684249;32;37730;-82
2023/09/14 14:21:12;;;;;;;4.60;2.10;;;;;;;26.52;45.28;99753.47;7684177;32;37163;-82
2023/09/14 14:25:28;;;;;;;3.45;2.17;;;;;;;26.53;45.02;99753.09;7684121;32;40057;-82
2023/09/14 14:29:45;;;;;;;2.85;2.20;;;;;;;26.77;43.65;99746.22;7684002;32;39980;-82
2023/09/14 14:34:02;;;;;;;3.03;2.20;;;;;;;26.50;43.22;99758.66;7683706;32;37676;-82
2023/09/14 14:38:18;;;;;;;3.87;2.62;;;;;;;26.61;43.28;99760.38;7683891;32;37064;-82
2023/09/14 14:42:34;;;;;;;5.57;2.80;;;;;;;26.54;43.06;99754.69;7683842;32;40136;-82
2023/09/14 14:46:51;;;;;;;2.97;2.15;;;;;;;26.21;43.00;99761.84;7683661;32;40066;-82
2023/09/14 14:51:07;;;;;;;3.35;2.20;;;;;;;26.55;42.59;99767.50;7691737;32;38738;-83
2023/09/14 14:55:23;;;;;;;4.22;3.00;;;;;;;26.33;42.28;99766.41;7692421;32;37735;-82
2023/09/14 14:59:40;;;;;;;3.47;2.15;;;;;;;26.55;42.31;99772.28;7692016;32;39835;-82
2023/09/14 15:03:56;;;;;;;2.70;2.00;;;;;;;26.46;42.68;99775.38;7692153;32;40702;-82
2023/09/14 15:08:12;;;;;;;2.55;2.08;;;;;;;26.70;41.32;99790.03;7691838;32;37989;-83
2023/09/14 15:12:29;;;;;;;3.25;2.17;;;;;;;26.69;42.12;99788.47;7691987;32;37066;-82
2023/09/14 15:16:45;;;;;;;3.40;2.50;;;;;;;26.60;42.10;99791.53;7691913;32;39720;-83
2023/09/14 15:21:02;;;;;;;4.57;2.40;;;;;;;26.46;43.22;99797.72;7691825;32;39742;-82
2023/09/14 15:25:19;;;;;;;4.70;2.37;;;;;;;26.52;42.62;99792.59;7691662;32;37925;-82
2023/09/14 15:29:35;;;;;;;4.72;2.55;;;;;;;26.48;43.07;99795.34;7691645;32;37075;-82
2023/09/14 15:33:51;;;;;;;4.07;2.10;;;;;;;26.70;41.35;99801.22;7691486;32;39335;-82
2023/09/14 15:38:07;;;;;;;3.83;2.20;;;;;;;26.62;41.71;99803.16;7691362;32;39920;-82
2023/09/14 15:42:24;;;;;;;5.57;2.30;;;;;;;26.71;41.12;99803.66;7691074;32;37617;-82
2023/09/14 15:46:40;;;;;;;2.65;2.10;;;;;;;26.78;40.26;99803.72;7691243;32;38135;-82
2023/09/14 15:50:57;;;;;;;2.60;2.00;;;;;;;26.60;40.45;99808.28;7690959;32;39479;-82
2023/09/14 15:55:14;;;;;;;2.50;1.95;;;;;;;27.15;38.60;99804.94;7690925;32;39617;-82
2023/09/14 15:59:46;;;;;;;3.40;2.35;;;;;;;27.27;38.48;99807.47;7688566;32;38724;-83
2023/09/14 16:04:03;;;;;;;2.90;2.30;;;;;;;27.98;36.60;99814.12;7685974;32;37095;-83
2023/09/14 16:08:20;;;;;;;2.92;2.08;;;;;;;28.14;37.15;99825.03;7686006;32;40111;-83
2023/09/14 16:12:36;;;;;;;3.62;2.33;;;;;;;28.04;37.57;99821.75;7685852;32;40702;-82
2023/09/14 16:16:52;;;;;;;14.87;8.68;;;;;;;27.90;37.74;99816.81;7685828;32;38766;-83
2023/09/14 16:21:09;;;;;;;5.40;3.20;;;;;;;27.49;40.06;99814.09;7685743;32;37963;-83
2023/09/14 16:25:25;;;;;;;5.97;3.40;;;;;;;27.30;42.73;99822.69;7685697;32;39359;-83
2023/09/14 16:29:42;;;;;;;6.90;2.92;;;;;;;27.23;44.23;99820.59;7684342;32;40524;-83
2023/09/14 16:33:58;;;;;;;5.72;3.25;;;;;;;27.59;43.63;99836.97;7685623;32;38646;-83
2023/09/14 16:38:16;;;;;;;4.50;2.72;;;;;;;27.28;44.08;99836.28;7685517;32;37922;-83
2023/09/14 16:42:32;;;;;;;4.62;3.08;;;;;;;26.93;45.14;99838.28;7685550;32;40020;-82
2023/09/14 16:46:48;;;;;;;3.60;2.70;;;;;;;26.80;44.66;99850.88;7685418;32;40109;-82
2023/09/14 16:51:05;;;;;;;5.75;3.58;;;;;;;26.40;44.06;99858.72;7685270;32;38160;-83
2023/09/14 16:55:21;;;;;;;5.40;3.33;;;;;;;26.10;44.05;99853.09;7685412;32;37127;-83
2023/09/14 16:59:37;;;;;;;4.53;2.92;;;;;;;26.00;43.94;99860.12;7685277;32;39370;-83
2023/09/14 17:03:55;;;;;;;5.32;3.30;;;;;;;25.76;43.75;99861.31;7685225;32;39895;-81
2023/09/14 17:08:12;;;;;;;4.32;2.95;;;;;;;25.76;43.07;99872.47;7685152;32;37774;-81
2023/09/14 17:12:29;;;;;;;5.05;3.15;;;;;;;25.67;42.66;99869.13;7685002;32;37367;-82
2023/09/14 17:16:46;;;;;;;4.30;2.95;;;;;;;25.44;42.82;99883.88;7685233;32;39083;-81
2023/09/14 17:21:03;;;;;;;5.30;3.10;;;;;;;25.43;42.73;99876.69;7685272;32;40861;-81
2023/09/14 17:25:19;;;;;;;7.22;3.17;;;;;;;25.18;43.51;99880.94;7684993;32;37937;-81
2023/09/14 17:29:36;;;;;;;5.90;3.12;;;;;;;25.02;44.36;99883.81;7685041;32;37913;-82
2023/09/14 17:33:52;;;;;;;6.25;3.30;;;;;;;25.02;44.59;99892.97;7682978;32;39428;-82
2023/09/14 17:38:08;;;;;;;5.37;3.45;;;;;;;24.90;45.41;99881.97;7684530;32;39895;-84
2023/09/14 17:42:24;;;;;;;6.75;3.50;;;;;;;24.69;46.37;99899.88;7684789;32;38006;-84
2023/09/14 17:46:41;;;;;;;6.62;3.70;;;;;;;24.48;47.33;99900.16;7684812;32;37078;-82
2023/09/14 17:50:57;;;;;;;8.57;4.03;;;;;;;24.47;47.78;99897.75;7684281;32;40155;-82
2023/09/14 17:55:14;;;;;;;4.72;3.47;;;;;;;24.27;49.25;99908.84;7684701;32;39815;-80
2023/09/14 17:59:30;;;;;;;6.30;3.70;;;;;;;24.27;50.16;99914.41;7684372;32;37811;-82
2023/09/14 18:03:49;;;;;;;6.28;4.15;;;;;;;24.15;51.16;99923.69;7684019;32;37815;-83
2023/09/14 18:08:05;;;;;;;6.60;4.00;;;;;;;24.04;52.36;99927.38;7684316;32;40258;-83
2023/09/14 18:12:22;;;;;;;7.50;3.87;;;;;;;23.80;53.43;99934.69;7684360;32;39748;-84
2023/09/14 18:16:40;;;;;;;6.65;4.20;;;;;;;23.67;53.91;99947.06;7684235;32;38946;-84
2023/09/14 18:20:57;;;;;;;6.60;3.85;;;;;;;23.76;53.69;99947.69;7684566;32;38757;-83
2023/09/14 18:25:16;;;;;;;5.97;3.50;;;;;;;23.57;54.41;99946.41;7683551;32;39129;-83
2023/09/14 18:29:33;;;;;;;6.62;3.67;;;;;;;23.47;54.64;99955.28;7683974;32;39969;-83
2023/09/14 18:33:49;;;;;;;5.57;3.35;;;;;;;23.65;54.23;99961.34;7683527;32;37716;-84
2023/09/14 18:38:06;;;;;;;4.68;3.15;;;;;;;23.48;54.55;99968.03;7678012;32;37802;-85
2023/09/14 18:42:22;;;;;;;4.70;3.22;;;;;;;23.30;54.82;99977.81;7682353;32;39655;-81
2023/09/14 18:46:38;;;;;;;6.00;3.37;;;;;;;23.01;55.92;99979.75;7680956;32;40799;-82
2023/09/14 18:51:02;;;;;;;5.32;3.22;;;;;;;22.69;57.12;99977.59;7682134;32;38001;-80
2023/09/14 18:55:22;;;;;;;5.62;3.65;;;;;;;22.87;56.33;99982.91;7682899;32;36502;-83
2023/09/14 18:59:38;;;;;;;15.50;9.30;;;;;;;22.81;56.31;99987.88;7681784;32;40115;-82
2023/09/14 19:03:55;;;;;;;8.45;4.87;;;;;;;22.84;55.77;99991.94;7682691;32;40785;-83
2023/09/14 19:08:11;;;;;;;6.12;3.60;;;;;;;22.48;56.84;100002.72;7681744;32;36463;-80
2023/09/14 19:12:27;;;;;;;4.95;3.03;;;;;;;22.39;56.68;100004.00;7681774;32;37126;-80
2023/09/14 19:16:44;;;;;;;6.75;3.55;;;;;;;22.46;56.26;100005.03;7682143;32;39955;-81
2023/09/14 19:21:04;;;;;;;7.07;3.65;;;;;;;22.39;56.61;100012.34;7681587;32;39934;-80
2023/09/14 19:25:20;;;;;;;6.10;3.58;;;;;;;22.26;56.62;100014.25;7682014;32;37910;-81
2023/09/14 19:29:36;;;;;;;6.80;3.70;;;;;;;22.35;55.81;100014.97;7680781;32;37883;-79
2023/09/14 19:33:53;;;;;;;7.90;3.95;;;;;;;22.32;55.18;100018.47;7682251;32;39586;-80
2023/09/14 19:38:10;;;;;;;5.95;3.62;;;;;;;22.05;55.48;100015.12;7684766;32;40843;-81
2023/09/14 19:42:26;;;;;;;5.78;3.72;;;;;;;22.13;55.26;100014.25;7684684;32;37888;-79
2023/09/14 19:46:42;;;;;;;8.90;4.12;;;;;;;22.09;55.65;100023.59;7685347;32;37858;-79
2023/09/14 19:50:58;;;;;;;7.35;4.15;;;;;;;22.12;55.69;100023.72;7684482;32;40166;-80
2023/09/14 19:55:15;;;;;;;4.97;3.50;;;;;;;22.09;55.70;100018.88;7685586;32;39883;-80
2023/09/14 19:59:31;;;;;;;5.72;3.83;;;;;;;22.00;55.98;100026.47;7677404;32;234347;-79
2023/09/14 20:03:47;;;;;;;6.20;4.05;;;;;;;21.86;56.79;100031.53;7684923;32;37236;-80